Time;durP1;ratioP1;P1;durP2;ratioP2;P2;SDS_P1;SDS_P2;PMS_P1;PMS_P2;Temp;Humidity;BMP_temperature;BMP_pressure;BME280_temperature;BME280_humidity;BME280_pressure;Samples;Min_cycle;Max_cycle;Signal;HPM_P1;HPM_P2
2023/03/30 00:01:49;;;;;;;8.93;2.77;;;14.50;74.00;;;;;;5069793;28;20453;-73
2023/03/30 00:04:36;;;;;;;20.53;3.63;;;14.40;74.70;;;;;;5065977;28;20493;-73
2023/03/30 00:07:22;;;;;;;12.60;2.83;;;14.40;79.00;;;;;;5059006;28;20425;-73
2023/03/30 00:10:09;;;;;;;10.60;2.67;;;14.20;81.40;;;;;;5065563;28;20426;-73
2023/03/30 00:12:56;;;;;;;9.03;2.90;;;14.20;75.60;;;;;;5065321;28;20814;-73
2023/03/30 00:15:42;;;;;;;12.63;2.67;;;14.20;78.50;;;;;;5065476;28;20818;-73
2023/03/30 00:18:28;;;;;;;4.20;2.10;;;14.10;81.10;;;;;;5059796;28;20463;-73
2023/03/30 00:21:17;;;;;;;13.57;2.67;;;14.10;81.60;;;;;;5067038;28;20535;-73
2023/03/30 00:24:02;;;;;;;12.50;2.97;;;14.00;83.50;;;;;;5066789;28;20794;-73
2023/03/30 00:26:48;;;;;;;14.40;3.53;;;13.90;89.10;;;;;;5065621;28;20417;-73
2023/03/30 00:29:34;;;;;;;16.13;3.40;;;13.70;90.60;;;;;;5067366;28;20424;-73
2023/03/30 00:32:19;;;;;;;6.73;3.17;;;13.60;90.60;;;;;;5071677;28;20422;-73
2023/03/30 00:35:06;;;;;;;8.43;2.50;;;13.40;92.60;;;;;;5072072;28;20871;-73
2023/03/30 00:37:53;;;;;;;14.03;3.10;;;13.40;91.90;;;;;;5060871;28;20455;-73
2023/03/30 00:40:38;;;;;;;6.47;2.80;;;13.40;92.70;;;;;;5065445;28;20472;-72
2023/03/30 00:43:25;;;;;;;11.03;3.70;;;13.30;92.80;;;;;;5067435;28;20452;-73
2023/03/30 00:46:11;;;;;;;11.07;2.90;;;13.30;94.20;;;;;;5056067;28;20446;-73
2023/03/30 00:49:02;;;;;;;11.17;3.47;;;13.20;95.40;;;;;;5067020;28;20986;-73
2023/03/30 00:51:49;;;;;;;6.50;3.23;;;13.20;95.10;;;;;;5066887;28;20445;-73
2023/03/30 00:54:38;;;;;;;10.97;4.00;;;13.20;94.80;;;;;;5063942;28;20454;-73
2023/03/30 00:57:26;;;;;;;8.30;3.17;;;13.20;94.90;;;;;;5062593;28;20814;-73
2023/03/30 01:00:14;;;;;;;11.63;2.43;;;13.20;95.70;;;;;;5064130;28;20448;-73
2023/03/30 01:03:04;;;;;;;10.67;3.60;;;13.10;96.70;;;;;;5065439;28;20425;-73
2023/03/30 01:05:51;;;;;;;7.37;2.90;;;13.20;96.20;;;;;;5062394;28;20439;-73
2023/03/30 01:08:39;;;;;;;8.43;2.50;;;13.10;96.60;;;;;;5066480;28;20528;-73
2023/03/30 01:11:27;;;;;;;9.23;2.60;;;13.10;96.50;;;;;;5067338;28;20422;-73
2023/03/30 01:14:15;;;;;;;8.63;2.40;;;13.10;96.50;;;;;;5070880;28;21046;-73
2023/03/30 01:17:12;;;;;;;7.20;2.80;;;13.10;96.30;;;;;;5057931;28;20451;-73
2023/03/30 01:20:34;;;;;;;10.67;3.13;;;13.10;95.90;;;;;;5061876;28;20442;-73
2023/03/30 01:23:51;;;;;;;10.90;3.30;;;13.10;96.40;;;;;;5061638;28;20799;-73
2023/03/30 01:26:49;;;;;;;19.17;3.87;;;13.10;95.90;;;;;;5047054;28;20472;-73
2023/03/30 01:29:56;;;;;;;4.87;2.40;;;13.20;96.40;;;;;;5070280;28;21753;-73
2023/03/30 01:33:15;;;;;;;12.30;2.77;;;13.20;96.90;;;;;;5068719;28;20464;-73
2023/03/30 01:36:33;;;;;;;9.40;3.23;;;13.10;99.00;;;;;;5061041;28;20995;-73
2023/03/30 01:39:27;;;;;;;7.90;2.77;;;13.10;98.50;;;;;;5046075;28;20544;-73
2023/03/30 01:42:21;;;;;;;6.93;2.40;;;13.20;96.20;;;;;;5060082;28;20583;-73
2023/03/30 01:45:12;;;;;;;18.83;3.20;;;13.40;93.20;;;;;;5062989;28;20491;-72
2023/03/30 01:48:05;;;;;;;21.53;3.70;;;13.60;90.30;;;;;;5070860;28;20463;-73
2023/03/30 01:50:53;;;;;;;10.33;3.57;;;14.00;85.90;;;;;;5065648;28;20516;-73
2023/03/30 01:53:44;;;;;;;12.63;2.50;;;14.10;85.40;;;;;;5061495;28;20444;-73
2023/03/30 01:56:35;;;;;;;18.10;3.10;;;14.30;79.30;;;;;;5058612;28;20466;-73
2023/03/30 01:59:27;;;;;;;14.33;3.30;;;14.50;77.70;;;;;;5071198;28;20448;-73
2023/03/30 02:02:15;;;;;;;8.30;2.67;;;14.60;77.50;;;;;;5065954;28;20509;-73
2023/03/30 02:05:04;;;;;;;13.60;3.00;;;14.60;76.50;;;;;;5067634;28;20450;-72
2023/03/30 02:07:53;;;;;;;7.60;2.70;;;14.70;74.50;;;;;;5069357;28;20448;-73
2023/03/30 02:10:41;;;;;;;19.53;3.57;;;14.80;75.20;;;;;;5073292;28;20457;-73
2023/03/30 02:13:30;;;;;;;22.33;2.77;;;14.80;73.50;;;;;;5067171;28;20522;-73
2023/03/30 02:16:22;;;;;;;11.50;3.87;;;14.90;73.60;;;;;;5067548;28;20465;-73
2023/03/30 02:19:07;;;;;;;11.90;2.97;;;14.90;75.70;;;;;;5075669;28;20423;-73
2023/03/30 02:21:53;;;;;;;10.30;4.00;;;14.90;75.10;;;;;;5070116;28;20693;-73
2023/03/30 02:24:42;;;;;;;8.60;2.40;;;14.90;77.80;;;;;;5068032;28;20454;-73
2023/03/30 02:27:28;;;;;;;11.43;3.27;;;14.80;79.80;;;;;;5067009;28;20950;-73
2023/03/30 02:30:16;;;;;;;10.00;2.80;;;14.70;84.00;;;;;;5070901;28;20486;-73
2023/03/30 02:33:02;;;;;;;9.17;3.40;;;14.70;85.20;;;;;;5066515;28;20461;-73
2023/03/30 02:36:08;;;;;;;9.10;2.70;;;14.80;76.90;;;;;;5064127;28;20768;-73
2023/03/30 02:39:07;;;;;;;9.23;2.97;;;14.90;76.40;;;;;;5069435;28;20423;-73
2023/03/30 02:42:26;;;;;;;16.53;3.30;;;14.90;77.20;;;;;;5074194;28;20945;-73
2023/03/30 02:45:26;;;;;;;20.43;3.60;;;14.90;77.20;;;;;;5058558;28;20477;-73
2023/03/30 02:48:31;;;;;;;7.60;2.93;;;14.90;84.30;;;;;;5061861;28;20443;-73
2023/03/30 02:51:35;;;;;;;10.83;2.80;;;14.90;88.10;;;;;;5065651;28;20494;-73
2023/03/30 02:54:32;;;;;;;9.00;2.80;;;14.80;89.00;;;;;;5061335;28;20629;-72
2023/03/30 02:57:31;;;;;;;16.70;3.50;;;14.70;90.60;;;;;;5070234;28;20527;-73
2023/03/30 03:00:23;;;;;;;13.03;3.27;;;14.60;94.40;;;;;;5065116;28;20811;-74
2023/03/30 03:03:14;;;;;;;17.00;4.57;;;14.40;96.90;;;;;;5068369;28;20516;-73
2023/03/30 03:06:01;;;;;;;9.07;3.57;;;14.30;98.80;;;;;;5064462;28;20861;-73
2023/03/30 03:08:48;;;;;;;8.57;3.77;;;14.00;99.90;;;;;;5070084;28;20436;-73
2023/03/30 03:11:34;;;;;;;8.13;3.30;;;13.90;99.90;;;;;;5063276;28;20552;-73
2023/03/30 03:14:19;;;;;;;17.87;3.10;;;13.80;99.90;;;;;;5060221;28;20618;-73
2023/03/30 03:17:06;;;;;;;9.20;3.70;;;13.80;99.90;;;;;;5069389;28;20450;-73
2023/03/30 03:19:52;;;;;;;11.60;3.43;;;13.60;99.90;;;;;;5067293;28;20460;-73
2023/03/30 03:22:38;;;;;;;5.80;3.40;;;13.50;99.90;;;;;;5070818;28;20436;-73
2023/03/30 03:25:23;;;;;;;13.03;3.73;;;13.40;99.90;;;;;;5059679;28;20475;-73
2023/03/30 03:28:09;;;;;;;14.43;3.20;;;13.40;99.90;;;;;;5067871;28;20489;-73
2023/03/30 03:30:57;;;;;;;13.57;3.77;;;13.30;99.90;;;;;;5074788;28;20443;-73
2023/03/30 03:33:44;;;;;;;8.13;3.27;;;13.20;99.90;;;;;;5063582;28;20555;-73
2023/03/30 03:36:31;;;;;;;14.13;4.07;;;13.20;99.90;;;;;;5062555;28;20569;-73
2023/03/30 03:39:16;;;;;;;22.27;4.13;;;13.10;99.90;;;;;;5064532;28;20424;-73
2023/03/30 03:42:03;;;;;;;9.87;4.10;;;13.10;99.90;;;;;;5068048;28;21003;-72
2023/03/30 03:44:49;;;;;;;10.90;3.60;;;13.00;99.90;;;;;;5060994;28;20818;-73
2023/03/30 03:47:34;;;;;;;17.43;3.83;;;13.00;99.90;;;;;;5067660;28;20668;-73
2023/03/30 03:50:22;;;;;;;10.10;3.37;;;12.90;99.90;;;;;;5063065;28;20510;-73
2023/03/30 03:53:08;;;;;;;11.60;3.23;;;13.00;99.90;;;;;;5066050;28;21032;-73
2023/03/30 03:55:54;;;;;;;11.33;4.90;;;13.00;99.90;;;;;;5057208;28;20417;-73
2023/03/30 03:58:39;;;;;;;12.13;3.60;;;12.90;99.90;;;;;;5066452;28;20452;-73
2023/03/30 04:01:25;;;;;;;11.50;4.80;;;12.90;99.90;;;;;;5067689;28;20961;-73
2023/03/30 04:04:10;;;;;;;9.93;3.60;;;12.90;99.90;;;;;;5060130;28;20983;-73
2023/03/30 04:06:58;;;;;;;16.73;3.77;;;12.80;99.90;;;;;;5067820;28;20465;-72
2023/03/30 04:09:43;;;;;;;15.80;3.33;;;12.80;99.90;;;;;;5062416;28;20423;-73
2023/03/30 04:12:29;;;;;;;8.57;2.97;;;12.70;99.90;;;;;;5063757;28;21098;-73
2023/03/30 04:15:15;;;;;;;7.43;2.87;;;12.70;99.90;;;;;;5061216;28;20526;-73
2023/03/30 04:18:01;;;;;;;8.70;3.40;;;12.60;99.90;;;;;;5065973;28;20442;-73
2023/03/30 04:20:48;;;;;;;10.67;3.40;;;12.60;99.90;;;;;;5066869;28;20450;-73
2023/03/30 04:23:35;;;;;;;9.77;2.90;;;12.60;99.90;;;;;;5059002;28;20462;-73
2023/03/30 04:26:21;;;;;;;13.90;4.40;;;12.60;99.90;;;;;;5066119;28;20469;-73
2023/03/30 04:29:07;;;;;;;11.53;3.10;;;12.50;99.90;;;;;;5066328;28;20445;-73
2023/03/30 04:31:52;;;;;;;6.43;3.43;;;12.50;99.90;;;;;;5062392;28;20493;-73
2023/03/30 04:34:41;;;;;;;14.53;3.83;;;12.50;99.90;;;;;;5059567;28;20508;-73
2023/03/30 04:37:30;;;;;;;14.00;3.13;;;12.50;99.90;;;;;;5069014;28;20466;-73
2023/03/30 04:40:17;;;;;;;10.10;3.07;;;12.50;99.90;;;;;;5069374;28;20533;-73
2023/03/30 04:43:03;;;;;;;12.53;3.20;;;12.50;99.90;;;;;;5069661;28;20575;-72
2023/03/30 04:45:50;;;;;;;10.87;3.80;;;12.50;99.90;;;;;;5066509;28;20468;-73
2023/03/30 04:48:36;;;;;;;15.23;5.30;;;12.40;99.90;;;;;;5067487;28;20958;-73
2023/03/30 04:51:22;;;;;;;12.20;3.30;;;12.40;99.90;;;;;;5062931;28;20454;-73
2023/03/30 04:54:08;;;;;;;8.13;3.83;;;12.40;99.90;;;;;;5060734;28;20440;-73
2023/03/30 04:56:55;;;;;;;12.17;3.67;;;12.30;99.90;;;;;;5064080;28;20545;-73
2023/03/30 04:59:42;;;;;;;16.80;3.70;;;12.30;99.90;;;;;;5069082;28;20519;-73
2023/03/30 05:02:27;;;;;;;17.03;4.30;;;12.30;99.90;;;;;;5062716;28;20445;-72
2023/03/30 05:05:13;;;;;;;21.10;4.27;;;12.40;99.90;;;;;;5064369;28;20447;-73
2023/03/30 05:07:59;;;;;;;11.77;4.00;;;12.40;99.90;;;;;;5063103;28;20449;-72
2023/03/30 05:10:45;;;;;;;12.57;4.50;;;12.40;99.90;;;;;;5066046;28;20440;-73
2023/03/30 05:13:32;;;;;;;7.57;3.30;;;12.40;99.90;;;;;;5058040;28;20834;-73
2023/03/30 05:16:17;;;;;;;5.83;2.83;;;12.40;99.90;;;;;;5065523;28;20457;-73
2023/03/30 05:19:03;;;;;;;12.63;3.87;;;12.50;99.90;;;;;;5071080;28;20498;-73
2023/03/30 05:21:49;;;;;;;11.53;4.03;;;12.50;99.90;;;;;;5062582;28;20443;-72
2023/03/30 05:24:35;;;;;;;9.77;3.57;;;12.50;99.90;;;;;;5072560;28;20439;-72
2023/03/30 05:27:20;;;;;;;14.13;3.87;;;12.40;99.90;;;;;;5067312;28;20431;-73
2023/03/30 05:30:08;;;;;;;16.13;3.67;;;12.40;99.90;;;;;;5065730;28;20447;-73
2023/03/30 05:32:55;;;;;;;12.73;4.40;;;12.40;99.90;;;;;;5064983;28;20457;-73
2023/03/30 05:35:40;;;;;;;13.97;3.40;;;12.40;99.90;;;;;;5069200;28;20418;-73
2023/03/30 05:38:26;;;;;;;11.63;3.60;;;12.40;99.90;;;;;;5066260;28;20411;-73
2023/03/30 05:41:12;;;;;;;13.87;3.70;;;12.40;99.90;;;;;;5068910;28;20423;-73
2023/03/30 05:43:58;;;;;;;15.30;4.30;;;12.50;99.90;;;;;;5065083;28;20932;-73
2023/03/30 05:46:45;;;;;;;8.10;3.20;;;12.60;99.90;;;;;;5067727;28;20528;-73
2023/03/30 05:49:30;;;;;;;15.03;4.00;;;12.60;99.90;;;;;;5066568;28;20419;-72
2023/03/30 05:52:16;;;;;;;11.53;3.90;;;12.60;99.90;;;;;;5067565;28;20591;-72
2023/03/30 05:55:01;;;;;;;15.13;3.53;;;12.60;99.90;;;;;;5072676;28;20530;-73
2023/03/30 05:57:47;;;;;;;18.07;4.03;;;12.50;99.90;;;;;;5070017;28;20424;-73
2023/03/30 06:00:35;;;;;;;18.73;5.00;;;12.70;99.90;;;;;;5066554;28;20453;-73
2023/03/30 06:03:22;;;;;;;20.17;5.53;;;12.90;99.90;;;;;;5067300;28;20465;-73
2023/03/30 06:06:08;;;;;;;17.17;4.33;;;13.10;99.90;;;;;;5067565;28;20438;-73
2023/03/30 06:08:54;;;;;;;18.93;5.00;;;13.10;99.90;;;;;;5065341;28;20475;-73
2023/03/30 06:11:40;;;;;;;18.87;5.80;;;13.20;99.90;;;;;;5064177;28;20959;-73
2023/03/30 06:14:25;;;;;;;14.53;4.73;;;13.20;99.90;;;;;;5067226;28;21037;-73
2023/03/30 06:17:14;;;;;;;17.03;5.60;;;13.10;99.90;;;;;;5062388;28;20442;-73
2023/03/30 06:20:07;;;;;;;14.17;5.23;;;13.10;99.90;;;;;;5064604;28;20461;-73
2023/03/30 06:22:52;;;;;;;18.87;5.63;;;13.00;99.90;;;;;;5064818;28;20946;-73
2023/03/30 06:25:38;;;;;;;15.27;5.23;;;12.90;99.90;;;;;;5067875;28;20457;-73
2023/03/30 06:28:24;;;;;;;26.43;5.60;;;12.90;99.90;;;;;;5067534;28;22722;-73
2023/03/30 06:31:10;;;;;;;20.40;4.50;;;12.90;99.90;;;;;;5062983;28;20511;-73
2023/03/30 06:33:56;;;;;;;16.83;4.70;;;12.90;99.90;;;;;;5067453;28;20441;-73
2023/03/30 06:36:43;;;;;;;16.60;5.60;;;12.90;99.90;;;;;;5065600;28;20922;-73
2023/03/30 06:39:29;;;;;;;14.90;5.03;;;12.90;99.90;;;;;;5066990;28;20415;-73
2023/03/30 06:42:14;;;;;;;19.73;5.10;;;12.90;99.90;;;;;;5062788;28;20423;-73
2023/03/30 06:45:00;;;;;;;18.83;5.80;;;12.90;99.90;;;;;;5066083;28;20512;-73
2023/03/30 06:47:46;;;;;;;13.90;5.33;;;12.90;99.90;;;;;;5066400;28;20419;-73
2023/03/30 06:50:32;;;;;;;11.43;4.70;;;12.90;99.90;;;;;;5062543;28;20445;-73
2023/03/30 06:53:20;;;;;;;18.83;5.07;;;12.80;99.90;;;;;;5069844;28;21080;-74
2023/03/30 06:56:06;;;;;;;22.60;5.97;;;12.80;99.90;;;;;;5069449;28;20546;-73
2023/03/30 06:58:52;;;;;;;18.73;6.27;;;12.80;99.90;;;;;;5064355;28;20490;-73
2023/03/30 07:01:38;;;;;;;17.47;5.60;;;12.80;99.90;;;;;;5063207;28;20487;-73
2023/03/30 07:04:24;;;;;;;13.07;5.43;;;12.80;99.90;;;;;;5067476;28;20496;-73
2023/03/30 07:07:09;;;;;;;13.27;6.50;;;12.80;99.90;;;;;;5068654;28;20472;-73
2023/03/30 07:09:56;;;;;;;13.53;5.17;;;12.70;99.90;;;;;;5065014;28;20448;-73
2023/03/30 07:12:42;;;;;;;17.20;5.57;;;12.70;99.90;;;;;;5062020;28;21031;-73
2023/03/30 07:15:28;;;;;;;12.93;5.10;;;12.70;99.90;;;;;;5067419;28;20456;-73
2023/03/30 07:18:14;;;;;;;17.30;7.27;;;12.70;99.90;;;;;;5068588;28;20412;-73
2023/03/30 07:21:00;;;;;;;22.77;6.13;;;12.70;99.90;;;;;;5059938;28;20418;-73
2023/03/30 07:23:45;;;;;;;19.83;6.03;;;12.70;99.90;;;;;;5064620;28;20459;-73
2023/03/30 07:26:32;;;;;;;21.83;6.30;;;12.70;99.90;;;;;;5067721;28;20823;-74
2023/03/30 07:29:18;;;;;;;16.80;5.97;;;12.70;99.90;;;;;;5065919;28;20440;-73
2023/03/30 07:32:03;;;;;;;17.00;5.40;;;12.80;99.90;;;;;;5060639;28;20679;-73
2023/03/30 07:34:49;;;;;;;16.80;6.07;;;12.70;99.90;;;;;;5064644;28;20463;-73
2023/03/30 07:37:36;;;;;;;12.37;5.37;;;12.80;99.90;;;;;;5067821;28;20425;-73
2023/03/30 07:40:22;;;;;;;12.43;5.43;;;12.70;99.90;;;;;;5066980;28;20440;-73
2023/03/30 07:43:09;;;;;;;13.70;6.10;;;12.70;99.90;;;;;;5067805;28;20438;-73
2023/03/30 07:45:55;;;;;;;17.73;5.67;;;12.70;99.90;;;;;;5066433;28;20488;-73
2023/03/30 07:48:41;;;;;;;13.00;5.23;;;12.70;99.90;;;;;;5064919;28;20457;-72
2023/03/30 07:51:27;;;;;;;14.33;5.40;;;12.80;99.90;;;;;;5068593;28;20439;-74
2023/03/30 07:54:13;;;;;;;11.93;5.33;;;12.80;99.90;;;;;;5075002;28;20452;-73
2023/03/30 07:56:58;;;;;;;10.63;5.27;;;12.70;99.90;;;;;;5068878;28;20481;-74
2023/03/30 07:59:46;;;;;;;13.43;4.67;;;12.80;99.90;;;;;;5061830;28;20452;-72
2023/03/30 08:02:31;;;;;;;13.60;5.23;;;12.80;99.90;;;;;;5069373;28;20780;-73
2023/03/30 08:05:17;;;;;;;9.37;3.77;;;12.70;99.90;;;;;;5061030;28;21785;-73
2023/03/30 08:08:03;;;;;;;13.97;4.87;;;12.70;99.90;;;;;;5065271;28;20421;-73
2023/03/30 08:10:49;;;;;;;11.67;5.30;;;12.70;99.90;;;;;;5059467;28;20872;-73
2023/03/30 08:13:36;;;;;;;12.53;4.13;;;12.70;99.90;;;;;;5061197;28;20572;-73
2023/03/30 08:16:23;;;;;;;9.80;4.77;;;12.70;99.90;;;;;;5075848;28;20811;-73
2023/03/30 08:19:09;;;;;;;7.43;4.00;;;12.80;99.90;;;;;;5068074;28;20481;-73
2023/03/30 08:21:55;;;;;;;9.87;5.00;;;12.80;99.90;;;;;;5066011;28;20688;-73
2023/03/30 08:24:41;;;;;;;6.60;4.40;;;12.80;99.90;;;;;;5064503;22;20477;-73
2023/03/30 08:27:27;;;;;;;8.83;4.00;;;12.80;99.90;;;;;;5051513;28;20453;-74
2023/03/30 08:30:15;;;;;;;6.47;3.30;;;12.90;99.90;;;;;;5044160;28;20490;-73
2023/03/30 08:33:02;;;;;;;10.63;3.50;;;13.00;99.90;;;;;;5047044;28;20469;-73
2023/03/30 08:35:48;;;;;;;7.93;3.53;;;13.10;99.90;;;;;;5023431;28;20969;-73
2023/03/30 08:38:34;;;;;;;7.03;4.37;;;13.10;99.90;;;;;;5030677;28;20569;-74
2023/03/30 08:41:42;;;;;;;7.03;3.80;;;13.20;99.90;;;;;;5029668;28;20973;-74
2023/03/30 08:44:33;;;;;;;7.50;3.03;;;13.20;99.90;;;;;;5027868;28;20493;-73
2023/03/30 08:47:26;;;;;;;7.80;4.07;;;13.30;99.90;;;;;;5020892;28;20496;-72
2023/03/30 08:50:17;;;;;;;7.57;3.03;;;13.30;99.90;;;;;;5017551;28;20494;-73
2023/03/30 08:53:06;;;;;;;6.60;3.40;;;13.30;99.90;;;;;;5028150;28;20436;-72
2023/03/30 08:55:55;;;;;;;6.10;3.23;;;13.30;99.90;;;;;;5033579;28;20567;-72
2023/03/30 08:58:50;;;;;;;5.70;3.33;;;13.30;99.90;;;;;;5023254;28;20500;-72
2023/03/30 09:01:45;;;;;;;9.03;3.13;;;13.30;99.90;;;;;;5014748;28;20436;-72
2023/03/30 09:04:45;;;;;;;7.90;3.10;;;13.30;99.90;;;;;;5022230;28;20464;-72
2023/03/30 09:07:38;;;;;;;13.60;3.20;;;13.40;99.90;;;;;;5021411;28;20444;-73
2023/03/30 09:10:26;;;;;;;9.97;2.80;;;13.40;99.90;;;;;;5017828;28;20447;-72
2023/03/30 09:13:16;;;;;;;8.27;3.07;;;13.50;99.90;;;;;;5022955;28;20497;-72
2023/03/30 09:16:13;;;;;;;7.53;3.23;;;13.50;99.90;;;;;;5023340;28;20480;-72
2023/03/30 09:19:01;;;;;;;14.57;4.53;;;13.60;99.90;;;;;;5022995;28;20455;-72
2023/03/30 09:21:50;;;;;;;9.47;3.90;;;13.50;99.90;;;;;;5028231;28;20465;-73
2023/03/30 09:24:37;;;;;;;12.37;3.83;;;13.50;99.90;;;;;;5023692;28;20476;-72
2023/03/30 09:27:31;;;;;;;7.93;3.57;;;13.50;99.90;;;;;;5024387;28;20475;-72
2023/03/30 09:30:22;;;;;;;9.47;3.60;;;13.60;99.90;;;;;;5022515;28;20429;-73
2023/03/30 09:33:22;;;;;;;8.10;3.13;;;13.60;99.90;;;;;;5020772;28;20424;-72
2023/03/30 09:36:14;;;;;;;13.63;5.00;;;13.50;99.90;;;;;;5025973;28;20533;-73
2023/03/30 09:39:08;;;;;;;11.77;4.37;;;13.60;99.90;;;;;;5022909;28;20503;-73
2023/03/30 09:42:08;;;;;;;15.20;4.30;;;13.60;99.90;;;;;;5023131;28;20454;-73
2023/03/30 09:44:58;;;;;;;9.50;3.67;;;13.60;99.90;;;;;;5026866;28;20484;-73
2023/03/30 09:47:43;;;;;;;8.70;3.57;;;13.70;99.90;;;;;;5024046;28;20523;-73
2023/03/30 09:50:29;;;;;;;9.03;3.70;;;13.70;99.90;;;;;;5022810;28;20465;-73
2023/03/30 09:53:23;;;;;;;8.67;3.30;;;13.70;99.90;;;;;;5024003;28;20461;-73
2023/03/30 09:56:17;;;;;;;11.80;3.97;;;13.70;99.90;;;;;;5029606;28;20451;-73
2023/03/30 09:59:20;;;;;;;6.40;3.57;;;13.80;99.90;;;;;;5021384;28;20425;-73
2023/03/30 10:02:16;;;;;;;9.17;3.87;;;13.90;99.90;;;;;;5022652;28;20436;-73
2023/03/30 10:05:04;;;;;;;7.30;3.40;;;14.10;99.90;;;;;;5027769;28;20791;-73
2023/03/30 10:07:54;;;;;;;7.37;3.13;;;14.20;99.90;;;;;;5018613;28;20483;-73
2023/03/30 10:10:40;;;;;;;12.27;3.40;;;14.20;99.90;;;;;;5026394;28;20835;-73
2023/03/30 10:13:31;;;;;;;11.70;4.60;;;14.20;99.90;;;;;;5024164;28;20429;-73
2023/03/30 10:16:26;;;;;;;7.13;3.20;;;14.30;99.90;;;;;;5018452;28;20451;-73
2023/03/30 10:19:18;;;;;;;10.83;3.90;;;14.30;99.90;;;;;;5021723;28;20958;-72
2023/03/30 10:22:16;;;;;;;6.80;3.13;;;14.40;99.90;;;;;;5022798;28;20459;-74
2023/03/30 10:25:09;;;;;;;11.23;3.70;;;14.50;99.90;;;;;;5029132;28;20459;-74
2023/03/30 10:27:57;;;;;;;12.27;4.10;;;14.60;99.90;;;;;;5030186;28;20564;-74
2023/03/30 10:30:51;;;;;;;10.03;3.73;;;14.70;99.90;;;;;;5033086;28;20803;-74
2023/03/30 10:33:43;;;;;;;8.13;3.30;;;14.80;99.90;;;;;;5033131;28;20442;-74
2023/03/30 10:36:32;;;;;;;8.93;3.77;;;14.80;99.90;;;;;;5031871;28;20885;-74
2023/03/30 10:39:24;;;;;;;10.60;4.27;;;14.80;99.90;;;;;;5029177;28;20473;-74
2023/03/30 10:42:14;;;;;;;12.83;3.77;;;14.70;99.90;;;;;;5027942;28;20438;-74
2023/03/30 10:45:02;;;;;;;7.03;3.87;;;14.60;99.90;;;;;;5029846;28;20827;-73
2023/03/30 10:47:55;;;;;;;8.07;3.80;;;14.60;99.90;;;;;;5029412;28;20469;-73
2023/03/30 10:50:52;;;;;;;9.40;4.20;;;14.50;99.90;;;;;;5034101;28;20470;-73
2023/03/30 10:53:47;;;;;;;8.07;3.73;;;14.50;99.90;;;;;;5041739;28;20425;-74
2023/03/30 10:56:38;;;;;;;14.77;3.70;;;14.60;99.90;;;;;;5035797;28;20486;-74
2023/03/30 10:59:46;;;;;;;7.67;3.20;;;14.60;99.90;;;;;;5032761;28;20947;-74
2023/03/30 11:02:59;;;;;;;13.47;3.47;;;14.70;99.90;;;;;;5036206;28;20421;-74
2023/03/30 11:05:50;;;;;;;6.13;3.07;;;14.70;99.90;;;;;;5031167;28;20463;-74
2023/03/30 11:08:41;;;;;;;9.63;3.43;;;14.70;99.90;;;;;;5036694;28;20459;-73
2023/03/30 11:11:35;;;;;;;13.10;3.70;;;14.80;99.90;;;;;;5040459;28;20414;-74
2023/03/30 11:14:25;;;;;;;7.00;4.03;;;14.90;99.90;;;;;;5041760;28;21278;-74
2023/03/30 11:17:18;;;;;;;8.83;3.57;;;15.10;99.90;;;;;;5030314;28;20815;-74
2023/03/30 11:20:17;;;;;;;8.03;2.80;;;15.10;99.90;;;;;;5029990;28;20455;-74
2023/03/30 11:23:11;;;;;;;4.43;2.57;;;15.30;99.90;;;;;;5032352;28;20415;-73
2023/03/30 11:26:02;;;;;;;7.60;2.70;;;15.40;99.90;;;;;;5026702;28;20836;-74
2023/03/30 11:29:01;;;;;;;5.13;2.53;;;15.60;99.90;;;;;;5019733;28;21102;-74
2023/03/30 11:31:59;;;;;;;9.23;2.90;;;15.60;99.90;;;;;;5028717;28;20822;-74
2023/03/30 11:34:54;;;;;;;10.77;3.23;;;15.80;99.90;;;;;;5028056;28;20463;-74
2023/03/30 11:37:45;;;;;;;7.93;2.37;;;15.80;99.90;;;;;;5025779;28;20461;-73
2023/03/30 11:40:40;;;;;;;9.40;3.10;;;15.80;99.90;;;;;;5030180;28;20950;-73
2023/03/30 11:43:30;;;;;;;7.57;2.77;;;16.00;99.90;;;;;;5022663;28;20597;-73
2023/03/30 11:46:22;;;;;;;9.27;2.70;;;16.30;99.90;;;;;;5025472;28;20433;-71
2023/03/30 11:49:30;;;;;;;6.40;2.90;;;16.40;99.90;;;;;;5030913;28;20445;-72
2023/03/30 11:52:29;;;;;;;10.60;3.30;;;16.30;99.90;;;;;;5022373;28;20430;-72
2023/03/30 11:55:26;;;;;;;13.33;3.43;;;16.20;99.90;;;;;;5028801;28;20484;-72
2023/03/30 11:58:23;;;;;;;11.03;3.13;;;16.10;99.90;;;;;;5028955;28;20433;-71
2023/03/30 12:01:31;;;;;;;6.30;2.47;;;15.90;99.90;;;;;;5028294;28;20560;-71
2023/03/30 12:04:26;;;;;;;7.17;2.57;;;15.80;99.90;;;;;;5030478;28;20472;-71
2023/03/30 12:07:23;;;;;;;9.40;2.73;;;15.80;99.90;;;;;;5021136;28;20445;-73
2023/03/30 12:10:16;;;;;;;6.10;2.70;;;15.70;99.90;;;;;;5029359;28;20439;-73
2023/03/30 12:13:03;;;;;;;6.57;2.30;;;15.70;99.90;;;;;;5020868;28;20454;-73
2023/03/30 12:15:55;;;;;;;8.57;2.87;;;15.70;99.90;;;;;;5021668;28;20448;-73
2023/03/30 12:18:45;;;;;;;8.50;2.40;;;15.70;99.90;;;;;;5021743;28;20443;-74
2023/03/30 12:21:33;;;;;;;7.63;2.87;;;15.70;99.90;;;;;;5020979;28;20473;-73
2023/03/30 12:24:24;;;;;;;4.53;2.20;;;15.60;99.90;;;;;;5023177;28;20456;-72
2023/03/30 12:27:10;;;;;;;9.23;1.93;;;15.60;99.90;;;;;;5031805;28;20519;-73
2023/03/30 12:30:12;;;;;;;4.97;2.10;;;15.50;99.90;;;;;;5038856;28;20413;-73
2023/03/30 12:33:03;;;;;;;6.80;2.30;;;15.40;99.90;;;;;;5036243;28;20397;-74
2023/03/30 12:36:03;;;;;;;12.77;2.73;;;15.20;99.90;;;;;;5035649;28;20461;-74
2023/03/30 12:38:50;;;;;;;9.57;2.93;;;15.20;99.90;;;;;;5038065;28;20430;-74
2023/03/30 12:41:43;;;;;;;12.73;2.60;;;15.00;99.90;;;;;;5036466;28;20405;-74
2023/03/30 12:44:37;;;;;;;7.80;2.63;;;14.80;99.90;;;;;;5024402;28;21025;-73
2023/03/30 12:47:40;;;;;;;6.80;2.13;;;14.50;99.90;;;;;;5032304;28;20572;-73
2023/03/30 12:50:40;;;;;;;7.10;2.20;;;14.40;99.90;;;;;;5031676;28;20408;-72
2023/03/30 12:53:48;;;;;;;7.07;2.10;;;14.30;99.90;;;;;;5022735;28;20413;-73
2023/03/30 12:56:37;;;;;;;10.80;2.17;;;14.30;99.90;;;;;;5024005;28;20480;-74
2023/03/30 12:59:35;;;;;;;6.07;2.10;;;14.30;99.90;;;;;;5028631;28;20395;-73
2023/03/30 13:03:00;;;;;;;18.00;2.57;;;14.40;99.90;;;;;;5032339;28;20448;-73
2023/03/30 13:05:52;;;;;;;8.37;2.83;;;14.60;99.90;;;;;;5023486;28;20455;-73
2023/03/30 13:08:40;;;;;;;5.27;2.10;;;14.90;99.90;;;;;;5019772;28;20462;-74
2023/03/30 13:11:26;;;;;;;6.93;2.17;;;15.20;99.90;;;;;;5023039;28;20470;-74
2023/03/30 13:14:25;;;;;;;6.90;2.30;;;15.60;99.90;;;;;;5019663;28;20468;-73
2023/03/30 13:17:14;;;;;;;13.30;2.00;;;15.90;99.90;;;;;;5026090;28;20444;-74
2023/03/30 13:20:18;;;;;;;4.90;1.87;;;16.00;99.90;;;;;;5026573;28;20443;-73
2023/03/30 13:23:30;;;;;;;4.70;2.07;;;16.50;99.90;;;;;;5023261;28;20437;-73
2023/03/30 13:26:24;;;;;;;6.40;1.53;;;17.00;99.90;;;;;;5024387;28;20500;-74
2023/03/30 13:29:13;;;;;;;6.23;1.73;;;17.40;99.90;;;;;;5016301;28;21019;-74
2023/03/30 13:32:11;;;;;;;6.30;1.60;;;17.60;99.90;;;;;;5030133;28;20423;-73
2023/03/30 13:35:09;;;;;;;3.50;1.63;;;17.60;99.90;;;;;;5025147;28;21054;-74
2023/03/30 13:38:19;;;;;;;5.40;1.37;;;17.80;99.90;;;;;;5027299;28;20550;-74
2023/03/30 13:41:20;;;;;;;8.37;1.77;;;17.80;99.90;;;;;;5022724;28;20443;-74
2023/03/30 13:44:20;;;;;;;5.77;1.60;;;18.20;99.90;;;;;;5027025;28;20425;-74
2023/03/30 13:47:23;;;;;;;4.57;1.23;;;18.60;99.90;;;;;;5024609;28;20433;-74
2023/03/30 13:50:19;;;;;;;3.07;1.30;;;18.70;99.90;;;;;;5026793;28;20465;-74
2023/03/30 13:53:10;;;;;;;9.23;1.80;;;18.70;99.90;;;;;;5032288;28;20413;-73
2023/03/30 13:55:56;;;;;;;5.40;1.30;;;18.60;99.90;;;;;;5035554;28;20636;-74
2023/03/30 13:58:49;;;;;;;4.23;1.00;;;18.70;81.90;;;;;;5026910;28;20431;-73
2023/03/30 14:01:35;;;;;;;4.53;1.20;;;18.70;84.30;;;;;;5032308;28;20436;-74
2023/03/30 14:04:21;;;;;;;6.73;1.40;;;18.60;78.10;;;;;;5027064;28;20819;-74
2023/03/30 14:07:15;;;;;;;7.00;1.77;;;18.70;72.60;;;;;;5027010;28;20541;-74
2023/03/30 14:10:13;;;;;;;3.83;1.73;;;18.90;70.70;;;;;;5027975;28;20955;-72
2023/03/30 14:12:58;;;;;;;7.97;1.47;;;19.10;64.80;;;;;;5029693;28;20455;-72
2023/03/30 14:15:46;;;;;;;6.50;1.60;;;19.00;56.40;;;;;;5025533;28;20413;-72
2023/03/30 14:18:32;;;;;;;5.10;2.13;;;19.30;60.00;;;;;;5025619;28;20800;-72
2023/03/30 14:21:20;;;;;;;5.57;2.23;;;19.50;64.50;;;;;;5025365;28;20421;-72
2023/03/30 14:24:12;;;;;;;4.53;1.27;;;19.40;60.60;;;;;;5048807;22;20481;-71
2023/03/30 14:27:03;;;;;;;6.27;1.73;;;19.00;56.60;;;;;;5044117;28;20800;-73
2023/03/30 14:29:50;;;;;;;3.57;0.90;;;18.60;55.00;;;;;;5049873;28;20515;-72
2023/03/30 14:32:37;;;;;;;5.03;1.13;;;18.20;51.40;;;;;;5053866;28;20837;-71
2023/03/30 14:35:26;;;;;;;4.10;1.70;;;17.80;55.90;;;;;;5030976;28;20442;-73
2023/03/30 14:38:16;;;;;;;7.40;1.17;;;17.50;57.70;;;;;;5037086;28;20435;-72
2023/03/30 14:41:02;;;;;;;6.93;1.10;;;17.30;54.90;;;;;;5033316;28;20420;-73